sensor_id;sensor_type;location;lat;lon;timestamp;temperature;humidity
72762;SHT30;60886;55.034;73.150;2023-10-19T00:00:03;6.86;73.36
72762;SHT30;60886;55.034;73.150;2023-10-19T00:03:20;6.79;73.54
72762;SHT30;60886;55.034;73.150;2023-10-19T00:06:22;6.80;73.55
72762;SHT30;60886;55.034;73.150;2023-10-19T00:09:24;6.79;73.58
72762;SHT30;60886;55.034;73.150;2023-10-19T00:12:31;6.77;73.77
72762;SHT30;60886;55.034;73.150;2023-10-19T00:15:34;6.73;73.71
72762;SHT30;60886;55.034;73.150;2023-10-19T00:18:38;6.66;73.93
72762;SHT30;60886;55.034;73.150;2023-10-19T00:21:44;6.62;74.46
72762;SHT30;60886;55.034;73.150;2023-10-19T00:24:51;6.55;74.52
72762;SHT30;60886;55.034;73.150;2023-10-19T00:27:52;6.50;74.74
72762;SHT30;60886;55.034;73.150;2023-10-19T00:30:54;6.45;74.93
72762;SHT30;60886;55.034;73.150;2023-10-19T00:34:05;6.39;75.31
72762;SHT30;60886;55.034;73.150;2023-10-19T00:37:07;6.35;75.66
72762;SHT30;60886;55.034;73.150;2023-10-19T00:40:11;6.38;75.82
72762;SHT30;60886;55.034;73.150;2023-10-19T00:43:26;6.36;76.02
72762;SHT30;60886;55.034;73.150;2023-10-19T00:46:30;6.35;76.11
72762;SHT30;60886;55.034;73.150;2023-10-19T00:49:54;6.33;76.27
72762;SHT30;60886;55.034;73.150;2023-10-19T00:52:56;6.26;76.55
72762;SHT30;60886;55.034;73.150;2023-10-19T00:55:59;6.22;76.41
72762;SHT30;60886;55.034;73.150;2023-10-19T00:59:02;6.14;76.57
72762;SHT30;60886;55.034;73.150;2023-10-19T01:02:31;6.07;76.88
72762;SHT30;60886;55.034;73.150;2023-10-19T01:05:33;6.08;77.06
72762;SHT30;60886;55.034;73.150;2023-10-19T01:08:39;6.02;77.22
72762;SHT30;60886;55.034;73.150;2023-10-19T01:11:43;6.01;77.20
72762;SHT30;60886;55.034;73.150;2023-10-19T01:15:13;6.01;77.13
72762;SHT30;60886;55.034;73.150;2023-10-19T01:18:17;5.94;77.24
72762;SHT30;60886;55.034;73.150;2023-10-19T01:21:21;5.91;77.31
72762;SHT30;60886;55.034;73.150;2023-10-19T01:24:25;5.86;77.55
72762;SHT30;60886;55.034;73.150;2023-10-19T01:27:42;5.80;77.83
72762;SHT30;60886;55.034;73.150;2023-10-19T01:30:48;5.77;77.92
72762;SHT30;60886;55.034;73.150;2023-10-19T01:33:52;5.70;78.13
72762;SHT30;60886;55.034;73.150;2023-10-19T01:36:56;5.64;78.44
72762;SHT30;60886;55.034;73.150;2023-10-19T01:39:58;5.63;78.76
72762;SHT30;60886;55.034;73.150;2023-10-19T01:43:02;5.63;78.82
72762;SHT30;60886;55.034;73.150;2023-10-19T01:46:04;5.59;78.92
72762;SHT30;60886;55.034;73.150;2023-10-19T01:49:07;5.53;79.26
72762;SHT30;60886;55.034;73.150;2023-10-19T01:52:09;5.56;79.36
72762;SHT30;60886;55.034;73.150;2023-10-19T01:55:11;5.53;79.39
72762;SHT30;60886;55.034;73.150;2023-10-19T01:58:13;5.50;79.56
72762;SHT30;60886;55.034;73.150;2023-10-19T02:01:16;5.51;79.82
72762;SHT30;60886;55.034;73.150;2023-10-19T02:04:33;5.53;79.95
72762;SHT30;60886;55.034;73.150;2023-10-19T02:07:36;5.51;79.68
72762;SHT30;60886;55.034;73.150;2023-10-19T02:10:38;5.54;79.65
72762;SHT30;60886;55.034;73.150;2023-10-19T02:13:45;5.53;79.80
72762;SHT30;60886;55.034;73.150;2023-10-19T02:16:53;5.50;79.95
72762;SHT30;60886;55.034;73.150;2023-10-19T02:19:57;5.47;79.75
72762;SHT30;60886;55.034;73.150;2023-10-19T02:22:59;5.51;79.54
72762;SHT30;60886;55.034;73.150;2023-10-19T02:26:04;5.54;79.64
72762;SHT30;60886;55.034;73.150;2023-10-19T02:29:06;5.59;79.33
72762;SHT30;60886;55.034;73.150;2023-10-19T02:32:11;5.66;79.33
72762;SHT30;60886;55.034;73.150;2023-10-19T02:35:14;5.68;78.98
72762;SHT30;60886;55.034;73.150;2023-10-19T02:38:16;5.80;78.65
72762;SHT30;60886;55.034;73.150;2023-10-19T02:41:18;5.81;78.42
72762;SHT30;60886;55.034;73.150;2023-10-19T02:44:22;5.83;78.32
72762;SHT30;60886;55.034;73.150;2023-10-19T02:47:31;5.83;78.07
72762;SHT30;60886;55.034;73.150;2023-10-19T02:50:33;5.91;77.87
72762;SHT30;60886;55.034;73.150;2023-10-19T02:53:35;5.95;77.57
72762;SHT30;60886;55.034;73.150;2023-10-19T02:56:39;5.98;77.25
72762;SHT30;60886;55.034;73.150;2023-10-19T02:59:40;6.07;77.20
72762;SHT30;60886;55.034;73.150;2023-10-19T03:02:41;6.14;76.70
72762;SHT30;60886;55.034;73.150;2023-10-19T03:05:43;6.20;76.46
72762;SHT30;60886;55.034;73.150;2023-10-19T03:08:44;6.24;75.99
72762;SHT30;60886;55.034;73.150;2023-10-19T03:11:47;6.32;75.67
72762;SHT30;60886;55.034;73.150;2023-10-19T03:14:53;6.46;74.93
72762;SHT30;60886;55.034;73.150;2023-10-19T03:18:10;6.50;74.53
72762;SHT30;60886;55.034;73.150;2023-10-19T03:21:13;6.57;74.22
72762;SHT30;60886;55.034;73.150;2023-10-19T03:24:15;6.73;73.76
72762;SHT30;60886;55.034;73.150;2023-10-19T03:27:35;6.86;73.05
72762;SHT30;60886;55.034;73.150;2023-10-19T03:30:37;6.97;72.37
72762;SHT30;60886;55.034;73.150;2023-10-19T03:33:42;7.14;71.88
72762;SHT30;60886;55.034;73.150;2023-10-19T03:36:44;7.26;71.01
72762;SHT30;60886;55.034;73.150;2023-10-19T03:39:45;7.30;70.62
72762;SHT30;60886;55.034;73.150;2023-10-19T03:42:47;7.37;70.23
72762;SHT30;60886;55.034;73.150;2023-10-19T03:45:48;7.47;70.07
72762;SHT30;60886;55.034;73.150;2023-10-19T03:48:55;7.40;70.19
72762;SHT30;60886;55.034;73.150;2023-10-19T03:52:00;7.46;69.48
72762;SHT30;60886;55.034;73.150;2023-10-19T03:55:21;7.54;69.19
72762;SHT30;60886;55.034;73.150;2023-10-19T03:58:25;7.65;69.07
72762;SHT30;60886;55.034;73.150;2023-10-19T04:01:30;7.79;68.49
72762;SHT30;60886;55.034;73.150;2023-10-19T04:04:32;7.85;68.26
72762;SHT30;60886;55.034;73.150;2023-10-19T04:07:34;7.86;67.31
72762;SHT30;60886;55.034;73.150;2023-10-19T04:10:36;7.88;67.34
72762;SHT30;60886;55.034;73.150;2023-10-19T04:13:38;7.92;67.26
72762;SHT30;60886;55.034;73.150;2023-10-19T04:16:40;8.03;67.12
72762;SHT30;60886;55.034;73.150;2023-10-19T04:19:44;8.07;66.99
72762;SHT30;60886;55.034;73.150;2023-10-19T04:22:49;8.13;66.78
72762;SHT30;60886;55.034;73.150;2023-10-19T04:25:55;8.15;66.37
72762;SHT30;60886;55.034;73.150;2023-10-19T04:29:05;8.21;66.13
72762;SHT30;60886;55.034;73.150;2023-10-19T04:32:13;8.34;66.29
72762;SHT30;60886;55.034;73.150;2023-10-19T04:35:15;8.39;65.88
72762;SHT30;60886;55.034;73.150;2023-10-19T04:38:23;8.40;64.71
72762;SHT30;60886;55.034;73.150;2023-10-19T04:41:24;8.42;65.04
72762;SHT30;60886;55.034;73.150;2023-10-19T04:44:29;8.52;65.00
72762;SHT30;60886;55.034;73.150;2023-10-19T04:47:33;8.59;65.10
72762;SHT30;60886;55.034;73.150;2023-10-19T04:50:36;8.71;64.24
72762;SHT30;60886;55.034;73.150;2023-10-19T04:53:38;8.80;64.10
72762;SHT30;60886;55.034;73.150;2023-10-19T04:56:39;8.85;63.16
72762;SHT30;60886;55.034;73.150;2023-10-19T04:59:41;8.91;62.87
72762;SHT30;60886;55.034;73.150;2023-10-19T05:02:46;9.01;62.53
72762;SHT30;60886;55.034;73.150;2023-10-19T05:05:47;9.05;61.45
72762;SHT30;60886;55.034;73.150;2023-10-19T05:08:49;9.14;61.99
72762;SHT30;60886;55.034;73.150;2023-10-19T05:11:50;9.21;61.72
72762;SHT30;60886;55.034;73.150;2023-10-19T05:14:53;9.27;60.99
72762;SHT30;60886;55.034;73.150;2023-10-19T05:17:57;9.29;59.35
72762;SHT30;60886;55.034;73.150;2023-10-19T05:20:58;9.35;59.68
72762;SHT30;60886;55.034;73.150;2023-10-19T05:24:00;9.42;59.00
72762;SHT30;60886;55.034;73.150;2023-10-19T05:27:02;9.48;58.07
72762;SHT30;60886;55.034;73.150;2023-10-19T05:30:05;9.55;58.34
72762;SHT30;60886;55.034;73.150;2023-10-19T05:33:08;9.59;57.44
72762;SHT30;60886;55.034;73.150;2023-10-19T05:36:09;9.66;57.40
72762;SHT30;60886;55.034;73.150;2023-10-19T05:39:11;9.66;57.26
72762;SHT30;60886;55.034;73.150;2023-10-19T05:42:14;9.68;56.92
72762;SHT30;60886;55.034;73.150;2023-10-19T05:45:16;9.73;56.92
72762;SHT30;60886;55.034;73.150;2023-10-19T05:48:20;9.79;57.96
72762;SHT30;60886;55.034;73.150;2023-10-19T05:51:22;9.79;56.76
72762;SHT30;60886;55.034;73.150;2023-10-19T05:54:23;9.82;56.71
72762;SHT30;60886;55.034;73.150;2023-10-19T05:57:31;9.89;56.48
72762;SHT30;60886;55.034;73.150;2023-10-19T06:00:33;9.96;55.29
72762;SHT30;60886;55.034;73.150;2023-10-19T06:03:35;9.99;55.14
72762;SHT30;60886;55.034;73.150;2023-10-19T06:06:37;10.02;55.40
72762;SHT30;60886;55.034;73.150;2023-10-19T06:09:50;10.07;54.10
72762;SHT30;60886;55.034;73.150;2023-10-19T06:13:12;10.13;54.19
72762;SHT30;60886;55.034;73.150;2023-10-19T06:16:17;10.20;53.98
72762;SHT30;60886;55.034;73.150;2023-10-19T06:19:19;10.26;53.06
72762;SHT30;60886;55.034;73.150;2023-10-19T06:22:20;10.29;52.43
72762;SHT30;60886;55.034;73.150;2023-10-19T06:25:23;10.32;51.24
72762;SHT30;60886;55.034;73.150;2023-10-19T06:28:24;10.32;50.29
72762;SHT30;60886;55.034;73.150;2023-10-19T06:31:26;10.30;50.61
72762;SHT30;60886;55.034;73.150;2023-10-19T06:34:28;10.41;50.57
72762;SHT30;60886;55.034;73.150;2023-10-19T06:37:57;10.44;50.21
72762;SHT30;60886;55.034;73.150;2023-10-19T06:41:13;10.44;49.60
72762;SHT30;60886;55.034;73.150;2023-10-19T06:44:15;10.47;50.38
72762;SHT30;60886;55.034;73.150;2023-10-19T06:47:20;10.50;50.70
72762;SHT30;60886;55.034;73.150;2023-10-19T06:50:24;10.54;49.77
72762;SHT30;60886;55.034;73.150;2023-10-19T06:53:26;10.54;49.54
72762;SHT30;60886;55.034;73.150;2023-10-19T06:56:27;10.51;49.66
72762;SHT30;60886;55.034;73.150;2023-10-19T06:59:29;10.53;50.01
72762;SHT30;60886;55.034;73.150;2023-10-19T07:02:31;10.50;48.75
72762;SHT30;60886;55.034;73.150;2023-10-19T07:05:32;10.50;49.62
72762;SHT30;60886;55.034;73.150;2023-10-19T07:08:35;10.48;48.73
72762;SHT30;60886;55.034;73.150;2023-10-19T07:11:36;10.50;49.62
72762;SHT30;60886;55.034;73.150;2023-10-19T07:14:38;10.55;48.72
72762;SHT30;60886;55.034;73.150;2023-10-19T07:17:43;10.51;48.25
72762;SHT30;60886;55.034;73.150;2023-10-19T07:20:44;10.55;47.98
72762;SHT30;60886;55.034;73.150;2023-10-19T07:23:49;10.54;48.52
72762;SHT30;60886;55.034;73.150;2023-10-19T07:26:53;10.54;48.14
72762;SHT30;60886;55.034;73.150;2023-10-19T07:30:03;10.57;49.10
72762;SHT30;60886;55.034;73.150;2023-10-19T07:33:09;10.58;48.44
72762;SHT30;60886;55.034;73.150;2023-10-19T07:36:14;10.57;49.26
72762;SHT30;60886;55.034;73.150;2023-10-19T07:39:15;10.57;48.59
72762;SHT30;60886;55.034;73.150;2023-10-19T07:42:20;10.58;49.68
72762;SHT30;60886;55.034;73.150;2023-10-19T07:45:22;10.58;49.30
72762;SHT30;60886;55.034;73.150;2023-10-19T07:48:24;10.64;49.31
72762;SHT30;60886;55.034;73.150;2023-10-19T07:51:26;10.64;49.19
72762;SHT30;60886;55.034;73.150;2023-10-19T07:54:27;10.67;48.88
72762;SHT30;60886;55.034;73.150;2023-10-19T07:57:31;10.64;49.34
72762;SHT30;60886;55.034;73.150;2023-10-19T08:00:32;10.58;48.77
72762;SHT30;60886;55.034;73.150;2023-10-19T08:03:37;10.51;49.27
72762;SHT30;60886;55.034;73.150;2023-10-19T08:06:39;10.53;50.28
72762;SHT30;60886;55.034;73.150;2023-10-19T08:09:40;10.53;49.94
72762;SHT30;60886;55.034;73.150;2023-10-19T08:12:42;10.57;50.57
72762;SHT30;60886;55.034;73.150;2023-10-19T08:15:44;10.51;50.80
72762;SHT30;60886;55.034;73.150;2023-10-19T08:18:45;10.50;50.40
72762;SHT30;60886;55.034;73.150;2023-10-19T08:21:47;10.55;49.22
72762;SHT30;60886;55.034;73.150;2023-10-19T08:24:49;10.54;49.56
72762;SHT30;60886;55.034;73.150;2023-10-19T08:27:54;10.50;49.54
72762;SHT30;60886;55.034;73.150;2023-10-19T08:30:59;10.50;49.38
72762;SHT30;60886;55.034;73.150;2023-10-19T08:34:01;10.48;50.61
72762;SHT30;60886;55.034;73.150;2023-10-19T08:37:04;10.44;51.53
72762;SHT30;60886;55.034;73.150;2023-10-19T08:40:11;10.50;50.34
72762;SHT30;60886;55.034;73.150;2023-10-19T08:43:18;10.50;48.57
72762;SHT30;60886;55.034;73.150;2023-10-19T08:46:19;10.48;49.93
72762;SHT30;60886;55.034;73.150;2023-10-19T08:49:21;10.41;50.57
72762;SHT30;60886;55.034;73.150;2023-10-19T08:52:32;10.41;50.51
72762;SHT30;60886;55.034;73.150;2023-10-19T08:55:34;10.45;49.73
72762;SHT30;60886;55.034;73.150;2023-10-19T08:58:35;10.40;49.98
72762;SHT30;60886;55.034;73.150;2023-10-19T09:01:37;10.38;49.39
72762;SHT30;60886;55.034;73.150;2023-10-19T09:04:43;10.40;49.71
72762;SHT30;60886;55.034;73.150;2023-10-19T09:07:45;10.37;47.99
72762;SHT30;60886;55.034;73.150;2023-10-19T09:10:58;10.33;47.73
72762;SHT30;60886;55.034;73.150;2023-10-19T09:13:59;10.27;48.40
72762;SHT30;60886;55.034;73.150;2023-10-19T09:17:02;10.27;47.99
72762;SHT30;60886;55.034;73.150;2023-10-19T09:20:06;10.27;48.05
72762;SHT30;60886;55.034;73.150;2023-10-19T09:23:12;10.32;48.12
72762;SHT30;60886;55.034;73.150;2023-10-19T09:26:14;10.24;46.65
72762;SHT30;60886;55.034;73.150;2023-10-19T09:29:17;10.23;47.41
72762;SHT30;60886;55.034;73.150;2023-10-19T09:32:20;10.20;47.09
72762;SHT30;60886;55.034;73.150;2023-10-19T09:35:24;10.16;47.07
72762;SHT30;60886;55.034;73.150;2023-10-19T09:38:28;10.13;47.14
72762;SHT30;60886;55.034;73.150;2023-10-19T09:41:31;10.10;47.86
72762;SHT30;60886;55.034;73.150;2023-10-19T09:44:45;10.09;47.93
72762;SHT30;60886;55.034;73.150;2023-10-19T09:47:52;10.06;47.44
72762;SHT30;60886;55.034;73.150;2023-10-19T09:50:55;10.07;47.84
72762;SHT30;60886;55.034;73.150;2023-10-19T09:54:07;10.09;47.62
72762;SHT30;60886;55.034;73.150;2023-10-19T09:57:21;10.07;47.63
72762;SHT30;60886;55.034;73.150;2023-10-19T10:00:25;10.03;47.23
72762;SHT30;60886;55.034;73.150;2023-10-19T10:03:47;10.06;46.28
72762;SHT30;60886;55.034;73.150;2023-10-19T10:09:55;9.90;45.44
72762;SHT30;60886;55.034;73.150;2023-10-19T10:16:33;9.90;45.97
72762;SHT30;60886;55.034;73.150;2023-10-19T10:19:35;9.81;45.90
72762;SHT30;60886;55.034;73.150;2023-10-19T10:22:37;9.76;46.28
72762;SHT30;60886;55.034;73.150;2023-10-19T10:25:38;9.78;45.88
72762;SHT30;60886;55.034;73.150;2023-10-19T10:28:41;9.86;45.91
72762;SHT30;60886;55.034;73.150;2023-10-19T10:31:49;9.79;46.28
72762;SHT30;60886;55.034;73.150;2023-10-19T10:34:55;9.79;46.62
72762;SHT30;60886;55.034;73.150;2023-10-19T10:37:58;9.73;45.61
72762;SHT30;60886;55.034;73.150;2023-10-19T10:40:59;9.72;45.86
72762;SHT30;60886;55.034;73.150;2023-10-19T10:44:01;9.72;45.38
72762;SHT30;60886;55.034;73.150;2023-10-19T10:47:05;9.62;46.03
72762;SHT30;60886;55.034;73.150;2023-10-19T10:50:09;9.55;45.99
72762;SHT30;60886;55.034;73.150;2023-10-19T10:53:12;9.49;46.34
72762;SHT30;60886;55.034;73.150;2023-10-19T10:56:15;9.42;45.92
72762;SHT30;60886;55.034;73.150;2023-10-19T10:59:16;9.36;46.24
72762;SHT30;60886;55.034;73.150;2023-10-19T11:02:19;9.29;46.58
72762;SHT30;60886;55.034;73.150;2023-10-19T11:05:23;9.27;46.44
72762;SHT30;60886;55.034;73.150;2023-10-19T11:08:39;9.25;46.47
72762;SHT30;60886;55.034;73.150;2023-10-19T11:11:40;9.19;46.78
72762;SHT30;60886;55.034;73.150;2023-10-19T11:14:55;9.12;46.95
72762;SHT30;60886;55.034;73.150;2023-10-19T11:17:56;9.07;46.93
72762;SHT30;60886;55.034;73.150;2023-10-19T11:21:02;8.98;47.13
72762;SHT30;60886;55.034;73.150;2023-10-19T11:24:06;8.91;47.12
72762;SHT30;60886;55.034;73.150;2023-10-19T11:27:08;8.85;47.33
72762;SHT30;60886;55.034;73.150;2023-10-19T11:30:11;8.80;47.29
72762;SHT30;60886;55.034;73.150;2023-10-19T11:33:13;8.71;47.60
72762;SHT30;60886;55.034;73.150;2023-10-19T11:36:15;8.63;49.64
72762;SHT30;60886;55.034;73.150;2023-10-19T11:39:17;8.56;50.26
72762;SHT30;60886;55.034;73.150;2023-10-19T11:42:19;8.47;50.21
72762;SHT30;60886;55.034;73.150;2023-10-19T11:45:20;8.40;50.81
72762;SHT30;60886;55.034;73.150;2023-10-19T11:48:22;8.29;51.30
72762;SHT30;60886;55.034;73.150;2023-10-19T11:51:23;8.21;51.40
72762;SHT30;60886;55.034;73.150;2023-10-19T11:54:25;8.13;51.95
72762;SHT30;60886;55.034;73.150;2023-10-19T11:57:31;8.02;51.77
72762;SHT30;60886;55.034;73.150;2023-10-19T12:00:33;7.92;53.60
72762;SHT30;60886;55.034;73.150;2023-10-19T12:03:35;7.85;52.48
72762;SHT30;60886;55.034;73.150;2023-10-19T12:06:38;7.72;53.03
72762;SHT30;60886;55.034;73.150;2023-10-19T12:09:39;7.68;53.15
72762;SHT30;60886;55.034;73.150;2023-10-19T12:13:02;7.62;53.02
72762;SHT30;60886;55.034;73.150;2023-10-19T12:16:04;7.55;53.28
72762;SHT30;60886;55.034;73.150;2023-10-19T12:19:18;7.47;53.92
72762;SHT30;60886;55.034;73.150;2023-10-19T12:22:20;7.38;55.67
72762;SHT30;60886;55.034;73.150;2023-10-19T12:25:22;7.31;53.77
72762;SHT30;60886;55.034;73.150;2023-10-19T12:28:33;7.26;54.46
72762;SHT30;60886;55.034;73.150;2023-10-19T12:31:34;7.23;54.29
72762;SHT30;60886;55.034;73.150;2023-10-19T12:34:35;7.17;55.17
72762;SHT30;60886;55.034;73.150;2023-10-19T12:37:37;7.10;54.56
72762;SHT30;60886;55.034;73.150;2023-10-19T12:40:48;7.06;55.20
72762;SHT30;60886;55.034;73.150;2023-10-19T12:43:50;6.96;55.77
72762;SHT30;60886;55.034;73.150;2023-10-19T12:46:58;6.96;55.02
72762;SHT30;60886;55.034;73.150;2023-10-19T12:50:05;6.86;54.47
72762;SHT30;60886;55.034;73.150;2023-10-19T12:53:14;6.83;54.38
72762;SHT30;60886;55.034;73.150;2023-10-19T12:56:19;6.76;54.48
72762;SHT30;60886;55.034;73.150;2023-10-19T12:59:21;6.69;55.22
72762;SHT30;60886;55.034;73.150;2023-10-19T13:02:31;6.57;55.22
72762;SHT30;60886;55.034;73.150;2023-10-19T13:05:34;6.55;55.03
72762;SHT30;60886;55.034;73.150;2023-10-19T13:08:36;6.46;55.10
72762;SHT30;60886;55.034;73.150;2023-10-19T13:11:39;6.43;55.29
72762;SHT30;60886;55.034;73.150;2023-10-19T13:14:41;6.35;55.64
72762;SHT30;60886;55.034;73.150;2023-10-19T13:17:47;6.28;55.87
72762;SHT30;60886;55.034;73.150;2023-10-19T13:21:03;6.20;55.95
72762;SHT30;60886;55.034;73.150;2023-10-19T13:24:10;6.17;56.57
72762;SHT30;60886;55.034;73.150;2023-10-19T13:27:11;6.11;56.53
72762;SHT30;60886;55.034;73.150;2023-10-19T13:30:13;6.07;56.39
72762;SHT30;60886;55.034;73.150;2023-10-19T13:33:25;6.08;56.47
72762;SHT30;60886;55.034;73.150;2023-10-19T13:36:27;6.01;56.73
72762;SHT30;60886;55.034;73.150;2023-10-19T13:39:29;6.04;56.54
72762;SHT30;60886;55.034;73.150;2023-10-19T13:42:32;5.98;57.12
72762;SHT30;60886;55.034;73.150;2023-10-19T13:45:37;5.95;57.00
72762;SHT30;60886;55.034;73.150;2023-10-19T13:48:39;5.95;57.53
72762;SHT30;60886;55.034;73.150;2023-10-19T13:51:41;5.87;57.46
72762;SHT30;60886;55.034;73.150;2023-10-19T13:54:44;5.87;57.15
72762;SHT30;60886;55.034;73.150;2023-10-19T13:57:49;5.83;57.23
72762;SHT30;60886;55.034;73.150;2023-10-19T14:00:51;5.78;57.35
72762;SHT30;60886;55.034;73.150;2023-10-19T14:03:52;5.75;57.37
72762;SHT30;60886;55.034;73.150;2023-10-19T14:06:56;5.73;57.36
72762;SHT30;60886;55.034;73.150;2023-10-19T14:10:01;5.71;57.93
72762;SHT30;60886;55.034;73.150;2023-10-19T14:13:04;5.66;58.08
72762;SHT30;60886;55.034;73.150;2023-10-19T14:16:07;5.59;57.91
72762;SHT30;60886;55.034;73.150;2023-10-19T14:19:09;5.57;57.99
72762;SHT30;60886;55.034;73.150;2023-10-19T14:22:10;5.56;58.12
72762;SHT30;60886;55.034;73.150;2023-10-19T14:25:12;5.57;57.91
72762;SHT30;60886;55.034;73.150;2023-10-19T14:28:17;5.56;58.10
72762;SHT30;60886;55.034;73.150;2023-10-19T14:31:19;5.50;58.33
72762;SHT30;60886;55.034;73.150;2023-10-19T14:34:23;5.47;58.65
72762;SHT30;60886;55.034;73.150;2023-10-19T14:37:31;5.43;58.59
72762;SHT30;60886;55.034;73.150;2023-10-19T14:40:32;5.43;58.41
72762;SHT30;60886;55.034;73.150;2023-10-19T14:43:34;5.44;58.67
72762;SHT30;60886;55.034;73.150;2023-10-19T14:46:35;5.42;59.10
72762;SHT30;60886;55.034;73.150;2023-10-19T14:49:37;5.36;59.47
72762;SHT30;60886;55.034;73.150;2023-10-19T14:52:39;5.43;59.18
72762;SHT30;60886;55.034;73.150;2023-10-19T14:55:44;5.39;59.09
72762;SHT30;60886;55.034;73.150;2023-10-19T14:58:48;5.43;58.76
72762;SHT30;60886;55.034;73.150;2023-10-19T15:01:52;5.42;58.89
72762;SHT30;60886;55.034;73.150;2023-10-19T15:04:54;5.40;58.90
72762;SHT30;60886;55.034;73.150;2023-10-19T15:07:57;5.39;59.04
72762;SHT30;60886;55.034;73.150;2023-10-19T15:10:58;5.35;59.78
72762;SHT30;60886;55.034;73.150;2023-10-19T15:14:00;5.30;59.79
72762;SHT30;60886;55.034;73.150;2023-10-19T15:17:02;5.27;59.99
72762;SHT30;60886;55.034;73.150;2023-10-19T15:20:05;5.25;59.98
72762;SHT30;60886;55.034;73.150;2023-10-19T15:23:06;5.20;60.29
72762;SHT30;60886;55.034;73.150;2023-10-19T15:26:09;5.16;60.22
72762;SHT30;60886;55.034;73.150;2023-10-19T15:29:10;5.12;60.30
72762;SHT30;60886;55.034;73.150;2023-10-19T15:32:11;5.13;60.88
72762;SHT30;60886;55.034;73.150;2023-10-19T15:35:14;5.09;61.02
72762;SHT30;60886;55.034;73.150;2023-10-19T15:38:25;5.09;61.06
72762;SHT30;60886;55.034;73.150;2023-10-19T15:41:28;5.08;60.88
72762;SHT30;60886;55.034;73.150;2023-10-19T15:44:29;5.06;61.09
72762;SHT30;60886;55.034;73.150;2023-10-19T15:47:34;5.05;60.96
72762;SHT30;60886;55.034;73.150;2023-10-19T15:50:38;4.96;61.76
72762;SHT30;60886;55.034;73.150;2023-10-19T15:53:39;4.97;61.32
72762;SHT30;60886;55.034;73.150;2023-10-19T15:56:41;4.89;61.72
72762;SHT30;60886;55.034;73.150;2023-10-19T15:59:43;4.81;61.78
72762;SHT30;60886;55.034;73.150;2023-10-19T16:02:45;4.76;61.93
72762;SHT30;60886;55.034;73.150;2023-10-19T16:05:47;4.68;62.62
72762;SHT30;60886;55.034;73.150;2023-10-19T16:08:48;4.65;62.95
72762;SHT30;60886;55.034;73.150;2023-10-19T16:11:49;4.61;62.68
72762;SHT30;60886;55.034;73.150;2023-10-19T16:14:54;4.54;62.61
72762;SHT30;60886;55.034;73.150;2023-10-19T16:17:55;4.47;62.75
72762;SHT30;60886;55.034;73.150;2023-10-19T16:20:57;4.44;62.87
72762;SHT30;60886;55.034;73.150;2023-10-19T16:23:59;4.41;62.84
72762;SHT30;60886;55.034;73.150;2023-10-19T16:27:07;4.33;63.01
72762;SHT30;60886;55.034;73.150;2023-10-19T16:30:18;4.30;63.38
72762;SHT30;60886;55.034;73.150;2023-10-19T16:33:23;4.22;63.49
72762;SHT30;60886;55.034;73.150;2023-10-19T16:36:25;4.14;63.75
72762;SHT30;60886;55.034;73.150;2023-10-19T16:39:26;4.14;63.58
72762;SHT30;60886;55.034;73.150;2023-10-19T16:42:31;4.09;63.78
72762;SHT30;60886;55.034;73.150;2023-10-19T16:45:33;4.00;64.09
72762;SHT30;60886;55.034;73.150;2023-10-19T16:48:35;3.99;63.85
72762;SHT30;60886;55.034;73.150;2023-10-19T16:51:36;3.94;63.96
72762;SHT30;60886;55.034;73.150;2023-10-19T16:54:45;3.90;64.07
72762;SHT30;60886;55.034;73.150;2023-10-19T16:57:55;3.87;64.50
72762;SHT30;60886;55.034;73.150;2023-10-19T17:01:06;3.87;64.24
72762;SHT30;60886;55.034;73.150;2023-10-19T17:04:30;3.83;64.28
72762;SHT30;60886;55.034;73.150;2023-10-19T17:07:35;3.77;64.45
72762;SHT30;60886;55.034;73.150;2023-10-19T17:10:38;3.73;64.40
72762;SHT30;60886;55.034;73.150;2023-10-19T17:13:41;3.73;64.42
72762;SHT30;60886;55.034;73.150;2023-10-19T17:16:51;3.65;64.75
72762;SHT30;60886;55.034;73.150;2023-10-19T17:23:29;3.52;65.21
72762;SHT30;60886;55.034;73.150;2023-10-19T17:26:34;3.52;65.40
72762;SHT30;60886;55.034;73.150;2023-10-19T17:29:37;3.46;65.78
72762;SHT30;60886;55.034;73.150;2023-10-19T17:32:42;3.38;65.60
72762;SHT30;60886;55.034;73.150;2023-10-19T17:35:43;3.29;65.85
72762;SHT30;60886;55.034;73.150;2023-10-19T17:38:47;3.25;65.95
72762;SHT30;60886;55.034;73.150;2023-10-19T17:41:49;3.18;66.17
72762;SHT30;60886;55.034;73.150;2023-10-19T17:44:52;3.16;65.94
72762;SHT30;60886;55.034;73.150;2023-10-19T17:47:53;3.18;66.65
72762;SHT30;60886;55.034;73.150;2023-10-19T17:50:55;3.18;65.86
72762;SHT30;60886;55.034;73.150;2023-10-19T17:53:56;3.15;66.19
72762;SHT30;60886;55.034;73.150;2023-10-19T17:56:58;3.12;66.28
72762;SHT30;60886;55.034;73.150;2023-10-19T17:59:59;3.05;66.43
72762;SHT30;60886;55.034;73.150;2023-10-19T18:03:01;3.03;66.37
72762;SHT30;60886;55.034;73.150;2023-10-19T18:06:06;3.01;66.78
72762;SHT30;60886;55.034;73.150;2023-10-19T18:09:07;3.00;66.62
72762;SHT30;60886;55.034;73.150;2023-10-19T18:12:09;2.97;66.92
72762;SHT30;60886;55.034;73.150;2023-10-19T18:15:13;2.97;66.53
72762;SHT30;60886;55.034;73.150;2023-10-19T18:18:35;2.95;66.49
72762;SHT30;60886;55.034;73.150;2023-10-19T18:21:38;2.94;66.72
72762;SHT30;60886;55.034;73.150;2023-10-19T18:24:39;2.93;66.39
72762;SHT30;60886;55.034;73.150;2023-10-19T18:27:41;2.91;66.51
72762;SHT30;60886;55.034;73.150;2023-10-19T18:30:54;2.85;66.67
72762;SHT30;60886;55.034;73.150;2023-10-19T18:33:55;2.85;66.55
72762;SHT30;60886;55.034;73.150;2023-10-19T18:36:57;2.85;66.54
72762;SHT30;60886;55.034;73.150;2023-10-19T18:40:00;2.88;66.57
72762;SHT30;60886;55.034;73.150;2023-10-19T18:43:01;2.83;66.59
72762;SHT30;60886;55.034;73.150;2023-10-19T18:46:05;2.85;66.47
72762;SHT30;60886;55.034;73.150;2023-10-19T18:49:06;2.83;66.51
72762;SHT30;60886;55.034;73.150;2023-10-19T18:52:09;2.84;66.69
72762;SHT30;60886;55.034;73.150;2023-10-19T18:55:11;2.85;66.57
72762;SHT30;60886;55.034;73.150;2023-10-19T18:58:15;2.85;66.85
72762;SHT30;60886;55.034;73.150;2023-10-19T19:01:16;2.83;66.88
72762;SHT30;60886;55.034;73.150;2023-10-19T19:04:18;2.81;66.78
72762;SHT30;60886;55.034;73.150;2023-10-19T19:07:20;2.80;66.56
72762;SHT30;60886;55.034;73.150;2023-10-19T19:10:23;2.76;66.95
72762;SHT30;60886;55.034;73.150;2023-10-19T19:13:25;2.81;66.77
72762;SHT30;60886;55.034;73.150;2023-10-19T19:16:27;2.80;66.71
72762;SHT30;60886;55.034;73.150;2023-10-19T19:19:28;2.80;66.68
72762;SHT30;60886;55.034;73.150;2023-10-19T19:22:46;2.77;66.77
72762;SHT30;60886;55.034;73.150;2023-10-19T19:25:48;2.73;66.81
72762;SHT30;60886;55.034;73.150;2023-10-19T19:28:50;2.71;66.90